Time,TemperatureF,DewpointF,PressureIn,WindDirection,WindDirectionDegrees,WindSpeedMPH,WindSpeedGustMPH,Humidity,HourlyPrecipIn,Conditions,Clouds,dailyrainin,SoftwareType,DateUTC
2013-07-25 00:00:00,68.6,51.3,29.88,West,266,4.0,5.0,54,0.00,,,0.00,VWS V14.01,2013-07-25 06:00:00,
2013-07-25 00:02:00,68.0,50.8,29.89,West,273,3.0,4.0,54,0.00,,,0.00,VWS V14.01,2013-07-25 06:02:00,
2013-07-25 00:05:00,68.3,51.5,29.88,West,264,2.0,5.0,55,0.00,,,0.00,VWS V14.01,2013-07-25 06:05:00,
2013-07-25 00:07:00,67.1,50.9,29.90,West,259,3.0,4.0,56,0.00,,,0.00,VWS V14.01,2013-07-25 06:07:00,
2013-07-25 00:10:00,67.4,51.7,29.88,West,269,2.0,5.0,57,0.00,,,0.00,VWS V14.01,2013-07-25 06:10:00,
2013-07-25 00:12:00,66.8,50.6,29.90,West,268,5.0,6.0,56,0.00,,,0.00,VWS V14.01,2013-07-25 06:12:00,
2013-07-25 00:15:00,68.4,51.6,29.88,WSW,257,2.0,4.0,55,0.00,,,0.00,VWS V14.01,2013-07-25 06:15:00,
2013-07-25 00:17:00,67.2,51.0,29.90,WSW,248,5.0,6.0,56,0.00,,,0.00,VWS V14.01,2013-07-25 06:17:00,
2013-07-25 00:20:00,68.4,51.1,29.88,WSW,258,2.0,4.0,54,0.00,,,0.00,VWS V14.01,2013-07-25 06:20:00,
2013-07-25 00:22:00,67.2,50.5,29.90,West,267,4.0,5.0,55,0.00,,,0.00,VWS V14.01,2013-07-25 06:22:00,
2013-07-25 00:25:00,68.3,51.5,29.88,SW,224,1.0,3.0,55,0.00,,,0.00,VWS V14.01,2013-07-25 06:25:00,
2013-07-25 00:27:00,67.5,50.8,29.90,West,266,4.0,6.0,55,0.00,,,0.00,VWS V14.01,2013-07-25 06:27:00,
2013-07-25 00:30:00,68.4,51.1,29.88,West,266,2.0,3.0,54,0.00,,,0.00,VWS V14.01,2013-07-25 06:30:00,
2013-07-25 00:32:00,67.9,50.7,29.90,West,271,5.0,5.0,54,0.00,,,0.00,VWS V14.01,2013-07-25 06:32:00,
2013-07-25 00:35:00,67.8,51.5,29.89,WSW,249,3.0,3.0,56,0.00,,,0.00,VWS V14.01,2013-07-25 06:35:00,
2013-07-25 00:38:00,68.0,50.8,29.90,WNW,283,1.0,5.0,54,0.00,,,0.00,VWS V14.01,2013-07-25 06:38:00,
2013-07-25 00:40:00,68.8,51.5,29.89,WSW,250,1.0,4.0,54,0.00,,,0.00,VWS V14.01,2013-07-25 06:40:00,
2013-07-25 00:43:00,67.9,50.7,29.90,NNE,23,0.0,0.0,54,0.00,,,0.00,VWS V14.01,2013-07-25 06:43:00,
2013-07-25 00:45:00,68.8,51.0,29.89,West,269,3.0,3.0,53,0.00,,,0.00,VWS V14.01,2013-07-25 06:45:00,
2013-07-25 00:48:00,67.5,50.8,29.90,WNW,290,0.0,2.0,55,0.00,,,0.00,VWS V14.01,2013-07-25 06:48:00,
2013-07-25 00:50:00,68.1,50.8,29.89,West,274,1.0,3.0,54,0.00,,,0.00,VWS V14.01,2013-07-25 06:50:00,
2013-07-25 00:53:00,68.2,50.4,29.90,West,267,1.0,3.0,53,0.00,,,0.00,VWS V14.01,2013-07-25 06:53:00,
2013-07-25 00:55:00,67.3,51.1,29.89,West,262,3.0,4.0,56,0.00,,,0.00,VWS V14.01,2013-07-25 06:55:00,
2013-07-25 00:58:00,68.0,50.8,29.91,West,280,2.0,3.0,54,0.00,,,0.00,VWS V14.01,2013-07-25 06:58:00,
2013-07-25 01:00:00,68.1,50.8,29.89,West,264,3.0,5.0,54,0.00,,,0.00,VWS V14.01,2013-07-25 07:00:00,
2013-07-25 01:03:00,67.3,50.6,29.91,NE,50,1.0,2.0,55,0.00,,,0.00,VWS V14.01,2013-07-25 07:03:00,
2013-07-25 01:05:00,67.4,50.7,29.89,WNW,288,4.0,4.0,55,0.00,,,0.00,VWS V14.01,2013-07-25 07:05:00,
2013-07-25 01:08:00,66.7,50.5,29.91,SSE,163,0.0,1.0,56,0.00,,,0.00,VWS V14.01,2013-07-25 07:08:00,
2013-07-25 01:10:00,66.5,50.3,29.90,West,260,3.0,4.0,56,0.00,,,0.00,VWS V14.01,2013-07-25 07:10:00,
2013-07-25 01:13:00,66.5,50.8,29.91,WSW,238,2.0,2.0,57,0.00,,,0.00,VWS V14.01,2013-07-25 07:13:00,
2013-07-25 01:15:00,67.3,50.6,29.90,West,280,2.0,6.0,55,0.00,,,0.00,VWS V14.01,2013-07-25 07:15:00,
2013-07-25 01:18:00,66.2,50.5,29.91,SW,229,2.0,2.0,57,0.00,,,0.00,VWS V14.01,2013-07-25 07:18:00,
2013-07-25 01:20:00,67.3,50.6,29.89,West,270,3.0,6.0,55,0.00,,,0.00,VWS V14.01,2013-07-25 07:20:00,
2013-07-25 01:23:00,65.3,50.2,29.91,West,260,2.0,4.0,58,0.00,,,0.00,VWS V14.01,2013-07-25 07:23:00,
2013-07-25 01:25:00,67.1,50.4,29.90,WSW,256,4.0,5.0,55,0.00,,,0.00,VWS V14.01,2013-07-25 07:25:00,
2013-07-25 01:28:00,64.3,50.1,29.91,West,267,2.0,3.0,60,0.00,,,0.00,VWS V14.01,2013-07-25 07:28:00,
2013-07-25 01:30:00,67.9,50.7,29.90,West,260,3.0,6.0,54,0.00,,,0.00,VWS V14.01,2013-07-25 07:30:00,
2013-07-25 01:33:00,63.8,49.7,29.91,SSW,207,2.0,3.0,60,0.00,,,0.00,VWS V14.01,2013-07-25 07:33:00,
2013-07-25 01:35:00,67.7,50.5,29.90,West,264,4.0,6.0,54,0.00,,,0.00,VWS V14.01,2013-07-25 07:35:00,
2013-07-25 01:38:00,63.9,49.8,29.91,WSW,252,2.0,3.0,60,0.00,,,0.00,VWS V14.01,2013-07-25 07:38:00,
2013-07-25 01:40:00,68.1,50.3,29.90,WNW,283,0.0,5.0,53,0.00,,,0.00,VWS V14.01,2013-07-25 07:40:00,
2013-07-25 01:43:00,63.8,49.7,29.91,WSW,252,1.0,2.0,60,0.00,,,0.00,VWS V14.01,2013-07-25 07:43:00,
2013-07-25 01:45:00,67.5,50.8,29.90,WNW,285,2.0,2.0,55,0.00,,,0.00,VWS V14.01,2013-07-25 07:45:00,
2013-07-25 01:48:00,63.4,49.7,29.92,SW,232,2.0,2.0,61,0.00,,,0.00,VWS V14.01,2013-07-25 07:48:00,
2013-07-25 01:50:00,67.8,50.6,29.90,West,273,1.0,2.0,54,0.00,,,0.00,VWS V14.01,2013-07-25 07:50:00,
2013-07-25 01:53:00,63.2,49.5,29.91,West,264,3.0,3.0,61,0.00,,,0.00,VWS V14.01,2013-07-25 07:53:00,
2013-07-25 01:55:00,68.1,50.3,29.90,West,261,3.0,3.0,53,0.00,,,0.00,VWS V14.01,2013-07-25 07:55:00,
2013-07-25 01:58:00,62.4,49.7,29.91,WSW,257,3.0,4.0,63,0.00,,,0.00,VWS V14.01,2013-07-25 07:58:00,
2013-07-25 02:00:00,67.9,50.7,29.91,WSW,256,1.0,3.0,54,0.00,,,0.00,VWS V14.01,2013-07-25 08:00:00,
2013-07-25 02:03:00,61.8,49.5,29.91,WSW,252,2.0,3.0,64,0.00,,,0.00,VWS V14.01,2013-07-25 08:03:00,
2013-07-25 02:05:00,66.9,50.7,29.91,SSE,163,1.0,2.0,56,0.00,,,0.00,VWS V14.01,2013-07-25 08:05:00,
2013-07-25 02:08:00,61.2,49.3,29.92,West,260,3.0,4.0,65,0.00,,,0.00,VWS V14.01,2013-07-25 08:08:00,
2013-07-25 02:10:00,66.6,50.4,29.91,SSE,166,1.0,1.0,56,0.00,,,0.00,VWS V14.01,2013-07-25 08:10:00,
2013-07-25 02:13:00,60.9,49.1,29.92,WSW,257,2.0,5.0,65,0.00,,,0.00,VWS V14.01,2013-07-25 08:13:00,
2013-07-25 02:15:00,66.4,50.7,29.91,WSW,252,2.0,2.0,57,0.00,,,0.00,VWS V14.01,2013-07-25 08:15:00,
2013-07-25 02:18:00,61.5,49.2,29.92,WSW,252,0.0,1.0,64,0.00,,,0.00,VWS V14.01,2013-07-25 08:18:00,
2013-07-25 02:20:00,65.9,50.7,29.91,WSW,243,2.0,4.0,58,0.00,,,0.00,VWS V14.01,2013-07-25 08:20:00,
2013-07-25 02:23:00,61.8,49.5,29.92,WSW,253,1.0,1.0,64,0.00,,,0.00,VWS V14.01,2013-07-25 08:23:00,
2013-07-25 02:25:00,64.8,50.2,29.91,West,259,2.0,4.0,59,0.00,,,0.00,VWS V14.01,2013-07-25 08:25:00,
2013-07-25 02:28:00,62.1,49.4,29.92,West,280,3.0,3.0,63,0.00,,,0.00,VWS V14.01,2013-07-25 08:28:00,
2013-07-25 02:30:00,64.1,50.0,29.91,WSW,253,1.0,3.0,60,0.00,,,0.00,VWS V14.01,2013-07-25 08:30:00,
2013-07-25 02:33:00,62.2,49.0,29.92,West,277,1.0,2.0,62,0.00,,,0.00,VWS V14.01,2013-07-25 08:33:00,
2013-07-25 02:35:00,63.8,49.7,29.91,WSW,243,2.0,4.0,60,0.00,,,0.00,VWS V14.01,2013-07-25 08:35:00,
2013-07-25 02:38:00,61.4,49.1,29.92,WSW,257,2.0,3.0,64,0.00,,,0.00,VWS V14.01,2013-07-25 08:38:00,
2013-07-25 02:40:00,63.9,49.8,29.91,WSW,246,1.0,3.0,60,0.00,,,0.00,VWS V14.01,2013-07-25 08:40:00,
2013-07-25 02:43:00,61.2,48.9,29.92,West,270,4.0,4.0,64,0.00,,,0.00,VWS V14.01,2013-07-25 08:43:00,
2013-07-25 02:45:00,63.7,50.0,29.91,WSW,252,1.0,2.0,61,0.00,,,0.00,VWS V14.01,2013-07-25 08:45:00,
2013-07-25 02:48:00,61.3,49.0,29.92,WNW,290,0.0,3.0,64,0.00,,,0.00,VWS V14.01,2013-07-25 08:48:00,
2013-07-25 02:50:00,63.3,49.6,29.92,SW,236,3.0,3.0,61,0.00,,,0.00,VWS V14.01,2013-07-25 08:50:00,
2013-07-25 02:53:00,61.1,48.8,29.93,WNW,288,1.0,1.0,64,0.00,,,0.00,VWS V14.01,2013-07-25 08:53:00,
2013-07-25 02:55:00,62.9,49.7,29.92,West,266,4.0,4.0,62,0.00,,,0.00,VWS V14.01,2013-07-25 08:55:00,
2013-07-25 02:58:00,60.4,48.6,29.93,WNW,287,1.0,1.0,65,0.00,,,0.00,VWS V14.01,2013-07-25 08:58:00,
2013-07-25 03:00:00,61.7,49.4,29.92,West,267,2.0,4.0,64,0.00,,,0.00,VWS V14.01,2013-07-25 09:00:00,
2013-07-25 03:03:00,61.1,48.8,29.93,West,268,4.0,5.0,64,0.00,,,0.00,VWS V14.01,2013-07-25 09:03:00,
2013-07-25 03:05:00,61.7,49.4,29.91,West,259,3.0,3.0,64,0.00,,,0.00,VWS V14.01,2013-07-25 09:05:00,
2013-07-25 03:08:00,60.1,48.3,29.93,West,271,1.0,4.0,65,0.00,,,0.00,VWS V14.01,2013-07-25 09:08:00,
2013-07-25 03:10:00,60.7,49.3,29.91,West,267,5.0,5.0,66,0.00,,,0.00,VWS V14.01,2013-07-25 09:10:00,
2013-07-25 03:13:00,59.8,48.8,29.93,West,271,0.0,1.0,67,0.00,,,0.00,VWS V14.01,2013-07-25 09:13:00,
2013-07-25 03:15:00,61.3,49.5,29.92,WSW,252,1.0,5.0,65,0.00,,,0.00,VWS V14.01,2013-07-25 09:15:00,
2013-07-25 03:18:00,59.8,48.8,29.93,West,260,2.0,2.0,67,0.00,,,0.00,VWS V14.01,2013-07-25 09:18:00,
2013-07-25 03:20:00,61.7,49.4,29.92,WSW,252,1.0,1.0,64,0.00,,,0.00,VWS V14.01,2013-07-25 09:20:00,
2013-07-25 03:23:00,59.4,48.5,29.93,WNW,287,1.0,3.0,67,0.00,,,0.00,VWS V14.01,2013-07-25 09:23:00,
2013-07-25 03:25:00,61.6,48.9,29.92,West,274,3.0,3.0,63,0.00,,,0.00,VWS V14.01,2013-07-25 09:25:00,
2013-07-25 03:29:00,59.1,48.6,29.93,WSW,238,1.0,2.0,68,0.00,,,0.00,VWS V14.01,2013-07-25 09:29:00,
2013-07-25 03:30:00,62.2,49.0,29.92,West,280,2.0,4.0,62,0.00,,,0.00,VWS V14.01,2013-07-25 09:30:00,
2013-07-25 03:34:00,58.8,48.3,29.93,West,262,1.0,2.0,68,0.00,,,0.00,VWS V14.01,2013-07-25 09:34:00,
2013-07-25 03:35:00,61.8,48.7,29.92,East,97,0.0,2.0,62,0.00,,,0.00,VWS V14.01,2013-07-25 09:35:00,
2013-07-25 03:39:00,58.7,48.2,29.94,WSW,253,2.0,3.0,68,0.00,,,0.00,VWS V14.01,2013-07-25 09:39:00,
2013-07-25 03:40:00,61.2,48.9,29.92,WSW,255,1.0,3.0,64,0.00,,,0.00,VWS V14.01,2013-07-25 09:40:00,
2013-07-25 03:44:00,59.0,48.5,29.94,West,274,1.0,3.0,68,0.00,,,0.00,VWS V14.01,2013-07-25 09:44:00,
2013-07-25 03:45:00,61.3,49.0,29.92,WSW,256,2.0,4.0,64,0.00,,,0.00,VWS V14.01,2013-07-25 09:45:00,
2013-07-25 03:49:00,58.6,48.1,29.94,WNW,284,1.0,2.0,68,0.00,,,0.00,VWS V14.01,2013-07-25 09:49:00,
2013-07-25 03:50:00,61.3,49.0,29.92,WNW,290,0.0,3.0,64,0.00,,,0.00,VWS V14.01,2013-07-25 09:50:00,
2013-07-25 03:54:00,59.1,48.6,29.94,WSW,240,1.0,3.0,68,0.00,,,0.00,VWS V14.01,2013-07-25 09:54:00,
2013-07-25 03:55:00,60.8,49.0,29.93,WNW,288,0.0,1.0,65,0.00,,,0.00,VWS V14.01,2013-07-25 09:55:00,
2013-07-25 03:59:00,58.3,48.2,29.94,WSW,248,0.0,2.0,69,0.00,,,0.00,VWS V14.01,2013-07-25 09:59:00,
2013-07-25 04:00:00,60.5,48.7,29.93,West,268,4.0,4.0,65,0.00,,,0.00,VWS V14.01,2013-07-25 10:00:00,
2013-07-25 04:04:00,58.0,47.9,29.94,WSW,249,1.0,1.0,69,0.00,,,0.00,VWS V14.01,2013-07-25 10:04:00,
2013-07-25 04:05:00,61.1,48.8,29.93,West,262,3.0,5.0,64,0.00,,,0.00,VWS V14.01,2013-07-25 10:05:00,
2013-07-25 04:09:00,58.0,48.3,29.94,WSW,248,1.0,2.0,70,0.00,,,0.00,VWS V14.01,2013-07-25 10:09:00,
2013-07-25 04:10:00,59.9,48.5,29.93,West,271,0.0,4.0,66,0.00,,,0.00,VWS V14.01,2013-07-25 10:10:00,
2013-07-25 04:14:00,58.1,48.0,29.94,WSW,245,2.0,3.0,69,0.00,,,0.00,VWS V14.01,2013-07-25 10:14:00,
2013-07-25 04:15:00,59.7,48.7,29.93,West,268,2.0,2.0,67,0.00,,,0.00,VWS V14.01,2013-07-25 10:15:00,
2013-07-25 04:19:00,58.6,48.1,29.94,West,266,2.0,2.0,68,0.00,,,0.00,VWS V14.01,2013-07-25 10:19:00,
2013-07-25 04:20:00,59.6,48.6,29.93,West,263,2.0,3.0,67,0.00,,,0.00,VWS V14.01,2013-07-25 10:20:00,
2013-07-25 04:24:00,58.2,48.1,29.94,WSW,252,2.0,4.0,69,0.00,,,0.00,VWS V14.01,2013-07-25 10:24:00,
2013-07-25 04:25:00,59.4,48.5,29.93,WSW,248,1.0,3.0,67,0.00,,,0.00,VWS V14.01,2013-07-25 10:25:00,
2013-07-25 04:29:00,58.1,48.0,29.94,West,260,1.0,3.0,69,0.00,,,0.00,VWS V14.01,2013-07-25 10:29:00,
2013-07-25 04:30:00,58.9,48.4,29.93,WSW,246,1.0,2.0,68,0.00,,,0.00,VWS V14.01,2013-07-25 10:30:00,
2013-07-25 04:34:00,58.0,47.9,29.95,WSW,257,2.0,2.0,69,0.00,,,0.00,VWS V14.01,2013-07-25 10:34:00,
2013-07-25 04:35:00,58.8,48.3,29.93,WSW,255,2.0,3.0,68,0.00,,,0.00,VWS V14.01,2013-07-25 10:35:00,
2013-07-25 04:39:00,58.1,48.0,29.95,WNW,289,1.0,2.0,69,0.00,,,0.00,VWS V14.01,2013-07-25 10:39:00,
2013-07-25 04:40:00,58.6,48.1,29.93,SW,235,3.0,3.0,68,0.00,,,0.00,VWS V14.01,2013-07-25 10:40:00,
2013-07-25 04:44:00,58.7,48.2,29.94,WSW,242,2.0,4.0,68,0.00,,,0.00,VWS V14.01,2013-07-25 10:44:00,
2013-07-25 04:45:00,59.0,48.5,29.93,WNW,291,2.0,3.0,68,0.00,,,0.00,VWS V14.01,2013-07-25 10:45:00,
2013-07-25 04:49:00,58.7,48.2,29.94,WSW,253,2.0,2.0,68,0.00,,,0.00,VWS V14.01,2013-07-25 10:49:00,
2013-07-25 04:50:00,58.9,48.4,29.94,West,264,2.0,2.0,68,0.00,,,0.00,VWS V14.01,2013-07-25 10:50:00,
2013-07-25 04:54:00,58.4,47.9,29.95,WSW,253,1.0,2.0,68,0.00,,,0.00,VWS V14.01,2013-07-25 10:54:00,
2013-07-25 04:55:00,58.9,48.4,29.94,West,260,2.0,3.0,68,0.00,,,0.00,VWS V14.01,2013-07-25 10:55:00,
2013-07-25 04:59:00,57.6,47.9,29.95,WSW,253,0.0,1.0,70,0.00,,,0.00,VWS V14.01,2013-07-25 10:59:00,
2013-07-25 05:00:00,58.3,48.2,29.94,WSW,248,0.0,2.0,69,0.00,,,0.00,VWS V14.01,2013-07-25 11:00:00,
2013-07-25 05:04:00,56.9,47.6,29.95,WSW,253,0.0,0.0,71,0.00,,,0.00,VWS V14.01,2013-07-25 11:04:00,
2013-07-25 05:05:00,58.0,48.3,29.94,WSW,249,1.0,1.0,70,0.00,,,0.00,VWS V14.01,2013-07-25 11:05:00,
2013-07-25 05:09:00,56.8,48.2,29.95,SW,229,0.0,0.0,73,0.00,,,0.00,VWS V14.01,2013-07-25 11:09:00,
2013-07-25 05:10:00,58.0,48.3,29.94,WSW,248,1.0,2.0,70,0.00,,,0.00,VWS V14.01,2013-07-25 11:10:00,
2013-07-25 05:14:00,57.5,48.2,29.95,West,271,0.0,2.0,71,0.00,,,0.00,VWS V14.01,2013-07-25 11:14:00,
2013-07-25 05:15:00,58.4,48.3,29.94,WSW,248,1.0,3.0,69,0.00,,,0.00,VWS V14.01,2013-07-25 11:15:00,
2013-07-25 05:19:00,57.1,48.5,29.95,West,271,0.0,0.0,73,0.00,,,0.00,VWS V14.01,2013-07-25 11:19:00,
2013-07-25 05:20:00,58.5,48.0,29.94,West,273,4.0,4.0,68,0.00,,,0.00,VWS V14.01,2013-07-25 11:20:00,
2013-07-25 05:24:00,57.5,48.9,29.95,SW,231,1.0,2.0,73,0.00,,,0.00,VWS V14.01,2013-07-25 11:24:00,
2013-07-25 05:25:00,58.0,47.9,29.94,West,267,2.0,4.0,69,0.00,,,0.00,VWS V14.01,2013-07-25 11:25:00,
2013-07-25 05:29:00,57.8,48.5,29.95,SW,225,1.0,2.0,71,0.00,,,0.00,VWS V14.01,2013-07-25 11:29:00,
2013-07-25 05:30:00,58.1,48.0,29.94,West,268,1.0,3.0,69,0.00,,,0.00,VWS V14.01,2013-07-25 11:30:00,
2013-07-25 05:34:00,57.5,48.2,29.96,West,262,2.0,2.0,71,0.00,,,0.00,VWS V14.01,2013-07-25 11:34:00,
2013-07-25 05:35:00,57.9,47.8,29.95,West,266,1.0,2.0,69,0.00,,,0.00,VWS V14.01,2013-07-25 11:35:00,
2013-07-25 05:39:00,57.5,48.2,29.96,West,266,1.0,3.0,71,0.00,,,0.00,VWS V14.01,2013-07-25 11:39:00,
2013-07-25 05:40:00,58.2,47.7,29.95,West,269,2.0,3.0,68,0.00,,,0.00,VWS V14.01,2013-07-25 11:40:00,
2013-07-25 05:44:00,58.0,48.3,29.96,West,267,0.0,1.0,70,0.00,,,0.00,VWS V14.01,2013-07-25 11:44:00,
2013-07-25 05:45:00,58.8,47.9,29.94,West,260,1.0,4.0,67,0.00,,,0.00,VWS V14.01,2013-07-25 11:45:00,
2013-07-25 05:49:00,57.4,48.1,29.96,WSW,239,1.0,2.0,71,0.00,,,0.00,VWS V14.01,2013-07-25 11:49:00,
2013-07-25 05:50:00,58.7,48.2,29.95,WSW,243,2.0,2.0,68,0.00,,,0.00,VWS V14.01,2013-07-25 11:50:00,
2013-07-25 05:54:00,57.4,48.5,29.96,SW,215,2.0,2.0,72,0.00,,,0.00,VWS V14.01,2013-07-25 11:54:00,
2013-07-25 05:55:00,58.2,47.7,29.95,WSW,253,1.0,2.0,68,0.00,,,0.00,VWS V14.01,2013-07-25 11:55:00,
2013-07-25 05:59:00,57.4,48.1,29.96,SW,236,1.0,1.0,71,0.00,,,0.00,VWS V14.01,2013-07-25 11:59:00,
2013-07-25 06:00:00,57.3,47.6,29.95,WSW,253,0.0,1.0,70,0.00,,,0.00,VWS V14.01,2013-07-25 12:00:00,
2013-07-25 06:04:00,57.1,47.8,29.96,West,264,3.0,3.0,71,0.00,,,0.00,VWS V14.01,2013-07-25 12:04:00,
2013-07-25 06:05:00,56.8,47.5,29.95,WSW,253,0.0,0.0,71,0.00,,,0.00,VWS V14.01,2013-07-25 12:05:00,
2013-07-25 06:09:00,57.0,47.7,29.96,West,269,3.0,3.0,71,0.00,,,0.00,VWS V14.01,2013-07-25 12:09:00,
2013-07-25 06:10:00,57.0,48.4,29.95,WSW,241,2.0,2.0,73,0.00,,,0.00,VWS V14.01,2013-07-25 12:10:00,
2013-07-25 06:14:00,56.4,47.9,29.96,SW,222,2.0,3.0,73,0.00,,,0.00,VWS V14.01,2013-07-25 12:14:00,
2013-07-25 06:15:00,57.4,48.5,29.95,West,271,0.0,2.0,72,0.00,,,0.00,VWS V14.01,2013-07-25 12:15:00,
2013-07-25 06:19:00,56.5,48.0,29.96,WSW,245,1.0,3.0,73,0.00,,,0.00,VWS V14.01,2013-07-25 12:19:00,
2013-07-25 06:20:00,57.1,48.9,29.95,West,271,1.0,1.0,74,0.00,,,0.00,VWS V14.01,2013-07-25 12:20:00,
2013-07-25 06:24:00,56.6,48.1,29.96,WSW,255,1.0,2.0,73,0.00,,,0.00,VWS V14.01,2013-07-25 12:24:00,
2013-07-25 06:25:00,57.6,49.0,29.95,WSW,240,1.0,2.0,73,0.00,,,0.00,VWS V14.01,2013-07-25 12:25:00,
2013-07-25 06:29:00,56.7,48.2,29.97,WSW,245,1.0,2.0,73,0.00,,,0.00,VWS V14.01,2013-07-25 12:29:00,
2013-07-25 06:30:00,57.8,48.5,29.95,SW,225,0.0,2.0,71,0.00,,,0.00,VWS V14.01,2013-07-25 12:30:00,
2013-07-25 06:34:00,57.1,48.2,29.97,West,266,2.0,2.0,72,0.00,,,0.00,VWS V14.01,2013-07-25 12:34:00,
2013-07-25 06:35:00,57.4,48.1,29.95,West,261,2.0,3.0,71,0.00,,,0.00,VWS V14.01,2013-07-25 12:35:00,
2013-07-25 06:39:00,57.5,48.2,29.97,West,266,2.0,3.0,71,0.00,,,0.00,VWS V14.01,2013-07-25 12:39:00,
2013-07-25 06:40:00,57.6,48.3,29.96,West,267,0.0,3.0,71,0.00,,,0.00,VWS V14.01,2013-07-25 12:40:00,
2013-07-25 06:44:00,58.2,48.8,29.97,West,270,1.0,3.0,71,0.00,,,0.00,VWS V14.01,2013-07-25 12:44:00,
2013-07-25 06:45:00,57.9,48.2,29.96,West,266,0.0,1.0,70,0.00,,,0.00,VWS V14.01,2013-07-25 12:45:00,
2013-07-25 06:49:00,58.6,49.2,29.97,West,260,2.0,2.0,71,0.00,,,0.00,VWS V14.01,2013-07-25 12:49:00,
2013-07-25 06:50:00,57.3,48.4,29.96,WSW,238,1.0,2.0,72,0.00,,,0.00,VWS V14.01,2013-07-25 12:50:00,
2013-07-25 06:54:00,58.9,49.5,29.97,West,267,2.0,3.0,71,0.00,,,0.00,VWS V14.01,2013-07-25 12:54:00,
2013-07-25 06:55:00,57.5,48.2,29.96,SW,214,1.0,2.0,71,0.00,,,0.00,VWS V14.01,2013-07-25 12:55:00,
2013-07-25 06:59:00,58.9,49.5,29.97,West,263,1.0,2.0,71,0.00,,,0.00,VWS V14.01,2013-07-25 12:59:00,
2013-07-25 07:00:00,57.5,48.2,29.96,WSW,239,1.0,2.0,71,0.00,,,0.00,VWS V14.01,2013-07-25 13:00:00,
2013-07-25 07:04:00,59.1,49.7,29.97,West,263,0.0,0.0,71,0.00,,,0.00,VWS V14.01,2013-07-25 13:04:00,
2013-07-25 07:05:00,57.0,47.7,29.96,West,266,3.0,3.0,71,0.00,,,0.00,VWS V14.01,2013-07-25 13:05:00,
2013-07-25 07:09:00,59.5,50.5,29.97,West,263,0.0,0.0,72,0.00,,,0.00,VWS V14.01,2013-07-25 13:09:00,
2013-07-25 07:10:00,57.0,48.1,29.96,West,259,2.0,3.0,72,0.00,,,0.00,VWS V14.01,2013-07-25 13:10:00,
2013-07-25 07:14:00,60.2,50.4,29.97,West,262,0.0,0.0,70,0.00,,,0.00,VWS V14.01,2013-07-25 13:14:00,
2013-07-25 07:15:00,56.3,47.8,29.96,WSW,245,2.0,3.0,73,0.00,,,0.00,VWS V14.01,2013-07-25 13:15:00,
2013-07-25 07:19:00,60.7,51.2,29.98,West,263,0.0,0.0,71,0.00,,,0.00,VWS V14.01,2013-07-25 13:19:00,
2013-07-25 07:20:00,56.5,48.0,29.96,WSW,245,1.0,3.0,73,0.00,,,0.00,VWS V14.01,2013-07-25 13:20:00,
2013-07-25 07:24:00,60.8,52.1,29.98,West,263,0.0,0.0,73,0.00,,,0.00,VWS V14.01,2013-07-25 13:24:00,
2013-07-25 07:25:00,56.6,48.1,29.97,WSW,255,1.0,2.0,73,0.00,,,0.00,VWS V14.01,2013-07-25 13:25:00,
2013-07-25 07:29:00,61.1,52.4,29.98,West,263,0.0,0.0,73,0.00,,,0.00,VWS V14.01,2013-07-25 13:29:00,
2013-07-25 07:30:00,56.8,48.2,29.97,WSW,253,1.0,2.0,73,0.00,,,0.00,VWS V14.01,2013-07-25 13:30:00,
2013-07-25 07:34:00,61.7,53.0,29.98,West,262,0.0,0.0,73,0.00,,,0.00,VWS V14.01,2013-07-25 13:34:00,
2013-07-25 07:35:00,57.2,48.3,29.97,West,266,2.0,2.0,72,0.00,,,0.00,VWS V14.01,2013-07-25 13:35:00,
2013-07-25 07:39:00,62.9,53.0,29.98,SSE,152,0.0,0.0,70,0.00,,,0.00,VWS V14.01,2013-07-25 13:39:00,
2013-07-25 07:40:00,57.6,48.3,29.97,West,269,2.0,3.0,71,0.00,,,0.00,VWS V14.01,2013-07-25 13:40:00,
2013-07-25 07:44:00,63.8,53.5,29.98,SSE,152,0.0,0.0,69,0.00,,,0.00,VWS V14.01,2013-07-25 13:44:00,
2013-07-25 07:45:00,58.3,49.0,29.97,West,273,2.0,3.0,71,0.00,,,0.00,VWS V14.01,2013-07-25 13:45:00,
2013-07-25 07:50:00,65.2,54.8,29.98,SSE,152,0.0,0.0,69,0.00,,,0.00,VWS V14.01,2013-07-25 13:50:00,
2013-07-25 07:55:00,66.4,54.7,29.98,SSE,152,0.0,0.0,66,0.00,,,0.00,VWS V14.01,2013-07-25 13:55:00,
2013-07-25 08:00:00,66.7,53.7,29.98,NW,321,3.0,3.0,63,0.00,,,0.00,VWS V14.01,2013-07-25 14:00:00,
2013-07-25 08:05:00,67.3,53.4,29.98,NW,314,3.0,5.0,61,0.00,,,0.00,VWS V14.01,2013-07-25 14:05:00,
2013-07-25 08:10:00,68.2,53.8,29.98,WNW,300,2.0,4.0,60,0.00,,,0.00,VWS V14.01,2013-07-25 14:10:00,
2013-07-25 08:15:00,69.1,53.7,29.98,WNW,303,2.0,5.0,58,0.00,,,0.00,VWS V14.01,2013-07-25 14:15:00,
2013-07-25 08:20:00,69.7,53.8,29.98,NW,309,2.0,4.0,57,0.00,,,0.00,VWS V14.01,2013-07-25 14:20:00,
2013-07-25 08:25:00,69.9,53.5,29.98,NW,323,5.0,7.0,56,0.00,,,0.00,VWS V14.01,2013-07-25 14:25:00,
2013-07-25 08:30:00,70.4,53.5,29.98,NW,314,5.0,7.0,55,0.00,,,0.00,VWS V14.01,2013-07-25 14:30:00,
2013-07-25 08:35:00,70.6,53.7,29.98,NW,317,3.0,7.0,55,0.00,,,0.00,VWS V14.01,2013-07-25 14:35:00,
2013-07-25 08:40:00,70.9,54.0,29.98,NW,312,7.0,7.0,55,0.00,,,0.00,VWS V14.01,2013-07-25 14:40:00,
2013-07-25 08:45:00,71.2,53.7,29.98,NW,312,7.0,8.0,54,0.00,,,0.00,VWS V14.01,2013-07-25 14:45:00,
2013-07-25 08:50:00,71.1,53.6,29.98,NW,322,5.0,8.0,54,0.00,,,0.00,VWS V14.01,2013-07-25 14:50:00,
2013-07-25 08:55:00,71.4,53.9,29.98,NNW,330,3.0,7.0,54,0.00,,,0.00,VWS V14.01,2013-07-25 14:55:00,
2013-07-25 09:00:00,71.7,54.7,29.98,NNW,335,5.0,6.0,55,0.00,,,0.00,VWS V14.01,2013-07-25 15:00:00,
2013-07-25 09:05:00,71.9,53.9,29.98,NNW,340,4.0,9.0,53,0.00,,,0.00,VWS V14.01,2013-07-25 15:05:00,
2013-07-25 09:10:00,72.3,53.7,29.98,NNW,333,5.0,7.0,52,0.00,,,0.00,VWS V14.01,2013-07-25 15:10:00,
2013-07-25 09:15:00,72.2,54.1,29.98,NNW,340,4.0,7.0,53,0.00,,,0.00,VWS V14.01,2013-07-25 15:15:00,
2013-07-25 09:20:00,72.3,53.2,29.98,NNW,330,5.0,8.0,51,0.00,,,0.00,VWS V14.01,2013-07-25 15:20:00,
2013-07-25 09:25:00,72.9,53.7,29.98,NW,309,4.0,6.0,51,0.00,,,0.00,VWS V14.01,2013-07-25 15:25:00,
2013-07-25 09:30:00,73.3,53.6,29.98,WNW,300,4.0,7.0,50,0.00,,,0.00,VWS V14.01,2013-07-25 15:30:00,
2013-07-25 09:35:00,73.6,53.8,29.98,WNW,293,3.0,6.0,50,0.00,,,0.00,VWS V14.01,2013-07-25 15:35:00,
2013-07-25 09:40:00,73.9,53.6,29.98,WSW,258,3.0,7.0,49,0.00,,,0.00,VWS V14.01,2013-07-25 15:40:00,
2013-07-25 09:45:00,74.4,52.9,29.98,WNW,301,3.0,5.0,47,0.00,,,0.00,VWS V14.01,2013-07-25 15:45:00,
2013-07-25 09:50:00,75.1,53.5,29.98,NW,316,4.0,6.0,47,0.00,,,0.00,VWS V14.01,2013-07-25 15:50:00,
2013-07-25 09:55:00,75.4,54.4,29.98,NW,321,4.0,6.0,48,0.00,,,0.00,VWS V14.01,2013-07-25 15:55:00,
2013-07-25 10:00:00,75.4,54.4,29.98,WNW,302,1.0,1.0,48,0.00,,,0.00,VWS V14.01,2013-07-25 16:00:00,
2013-07-25 10:05:00,76.2,53.9,29.97,NNW,330,4.0,4.0,46,0.00,,,0.00,VWS V14.01,2013-07-25 16:05:00,
2013-07-25 10:10:00,76.3,53.4,29.97,NNW,328,1.0,1.0,45,0.00,,,0.00,VWS V14.01,2013-07-25 16:10:00,
2013-07-25 10:15:00,76.6,53.7,29.97,NW,319,2.0,2.0,45,0.00,,,0.00,VWS V14.01,2013-07-25 16:15:00,
2013-07-25 10:20:00,77.1,53.5,29.97,NNE,31,0.0,0.0,44,0.00,,,0.00,VWS V14.01,2013-07-25 16:20:00,
2013-07-25 10:25:00,77.5,53.9,29.97,NW,312,3.0,3.0,44,0.00,,,0.00,VWS V14.01,2013-07-25 16:25:00,
2013-07-25 10:30:00,77.5,53.9,29.97,East,96,1.0,2.0,44,0.00,,,0.00,VWS V14.01,2013-07-25 16:30:00,
2013-07-25 10:35:00,78.0,53.7,29.97,NNW,336,0.0,1.0,43,0.00,,,0.00,VWS V14.01,2013-07-25 16:35:00,
2013-07-25 10:40:00,78.1,53.8,29.97,NE,48,2.0,2.0,43,0.00,,,0.00,VWS V14.01,2013-07-25 16:40:00,
2013-07-25 10:45:00,78.6,53.6,29.97,NNW,340,5.0,5.0,42,0.00,,,0.00,VWS V14.01,2013-07-25 16:45:00,
2013-07-25 10:50:00,78.4,53.4,29.96,NW,308,1.0,2.0,42,0.00,,,0.00,VWS V14.01,2013-07-25 16:50:00,
2013-07-25 10:55:00,78.9,53.9,29.96,East,91,3.0,3.0,42,0.00,,,0.00,VWS V14.01,2013-07-25 16:55:00,
2013-07-25 11:00:00,79.1,54.1,29.96,NW,308,3.0,4.0,42,0.00,,,0.00,VWS V14.01,2013-07-25 17:00:00,
2013-07-25 11:05:00,79.6,53.8,29.96,NNE,21,3.0,4.0,41,0.00,,,0.00,VWS V14.01,2013-07-25 17:05:00,
2013-07-25 11:10:00,76.3,53.4,29.97,NNW,328,0.0,7.0,45,0.00,,,0.00,VWS V14.01,2013-07-25 17:10:00,
2013-07-25 11:11:00,79.7,53.9,29.96,ESE,104,2.0,4.0,41,0.00,,,0.00,VWS V14.01,2013-07-25 17:11:00,
2013-07-25 11:15:00,76.6,53.7,29.97,NW,307,2.0,6.0,45,0.00,,,0.00,VWS V14.01,2013-07-25 17:15:00,
2013-07-25 11:16:00,79.8,54.0,29.96,NE,50,3.0,4.0,41,0.00,,,0.00,VWS V14.01,2013-07-25 17:16:00,
2013-07-25 11:20:00,77.0,53.4,29.97,NNE,32,0.0,6.0,44,0.00,,,0.00,VWS V14.01,2013-07-25 17:20:00,
2013-07-25 11:21:00,79.8,53.4,29.96,ESE,116,1.0,1.0,40,0.00,,,0.00,VWS V14.01,2013-07-25 17:21:00,
2013-07-25 11:25:00,77.5,53.9,29.97,NW,312,3.0,5.0,44,0.00,,,0.00,VWS V14.01,2013-07-25 17:25:00,
2013-07-25 11:26:00,80.5,54.7,29.96,North,6,3.0,5.0,41,0.00,,,0.00,VWS V14.01,2013-07-25 17:26:00,
2013-07-25 11:30:00,77.4,53.2,29.97,East,96,2.0,3.0,43,0.00,,,0.00,VWS V14.01,2013-07-25 17:30:00,
2013-07-25 11:31:00,80.9,53.7,29.96,NNE,32,4.0,5.0,39,0.00,,,0.00,VWS V14.01,2013-07-25 17:31:00,
2013-07-25 11:35:00,77.9,53.6,29.97,NNW,336,1.0,5.0,43,0.00,,,0.00,VWS V14.01,2013-07-25 17:35:00,
2013-07-25 11:36:00,80.3,53.1,29.96,NNE,27,1.0,2.0,39,0.00,,,0.00,VWS V14.01,2013-07-25 17:36:00,
2013-07-25 11:40:00,78.1,53.8,29.97,NE,46,2.0,6.0,43,0.00,,,0.00,VWS V14.01,2013-07-25 17:40:00,
2013-07-25 11:41:00,80.6,53.4,29.96,NW,323,2.0,5.0,39,0.00,,,0.00,VWS V14.01,2013-07-25 17:41:00,
2013-07-25 11:45:00,78.6,53.6,29.97,NNW,337,5.0,6.0,42,0.00,,,0.00,VWS V14.01,2013-07-25 17:45:00,
2013-07-25 11:46:00,80.8,52.8,29.95,NE,45,5.0,7.0,38,0.00,,,0.00,VWS V14.01,2013-07-25 17:46:00,
2013-07-25 11:50:00,78.4,53.4,29.97,NW,314,2.0,6.0,42,0.00,,,0.00,VWS V14.01,2013-07-25 17:50:00,
2013-07-25 11:51:00,81.0,53.7,29.96,NNW,333,4.0,5.0,39,0.00,,,0.00,VWS V14.01,2013-07-25 17:51:00,
2013-07-25 11:55:00,78.8,53.8,29.97,ENE,64,2.0,4.0,42,0.00,,,0.00,VWS V14.01,2013-07-25 17:55:00,
2013-07-25 11:56:00,81.3,53.3,29.95,NW,305,2.0,3.0,38,0.00,,,0.00,VWS V14.01,2013-07-25 17:56:00,
2013-07-25 12:00:00,79.1,54.1,29.96,NW,323,4.0,7.0,42,0.00,,,0.00,VWS V14.01,2013-07-25 18:00:00,
2013-07-25 12:01:00,81.6,53.6,29.95,WNW,302,5.0,9.0,38,0.00,,,0.00,VWS V14.01,2013-07-25 18:01:00,
2013-07-25 12:05:00,79.5,55.1,29.96,North,352,4.0,5.0,43,0.00,,,0.00,VWS V14.01,2013-07-25 18:05:00,
2013-07-25 12:07:00,81.6,53.6,29.95,NNE,12,3.0,5.0,38,0.00,,,0.00,VWS V14.01,2013-07-25 18:07:00,
2013-07-25 12:10:00,79.7,53.9,29.96,East,83,4.0,6.0,41,0.00,,,0.00,VWS V14.01,2013-07-25 18:10:00,
2013-07-25 12:12:00,82.1,53.3,29.95,NE,51,2.0,4.0,37,0.00,,,0.00,VWS V14.01,2013-07-25 18:12:00,
2013-07-25 12:15:00,79.7,53.9,29.96,NNE,26,4.0,6.0,41,0.00,,,0.00,VWS V14.01,2013-07-25 18:15:00,
2013-07-25 12:17:00,83.3,53.6,29.95,NE,44,4.0,6.0,36,0.00,,,0.00,VWS V14.01,2013-07-25 18:17:00,
2013-07-25 12:20:00,79.8,53.4,29.96,NE,49,0.0,7.0,40,0.00,,,0.00,VWS V14.01,2013-07-25 18:20:00,
2013-07-25 12:22:00,83.2,53.5,29.95,NNE,13,5.0,6.0,36,0.00,,,0.00,VWS V14.01,2013-07-25 18:22:00,
2013-07-25 12:25:00,80.5,54.7,29.96,NNW,342,2.0,5.0,41,0.00,,,0.00,VWS V14.01,2013-07-25 18:25:00,
2013-07-25 12:27:00,83.5,53.0,29.95,NNE,20,5.0,8.0,35,0.00,,,0.00,VWS V14.01,2013-07-25 18:27:00,
2013-07-25 12:30:00,80.9,53.7,29.96,NNE,32,5.0,8.0,39,0.00,,,0.00,VWS V14.01,2013-07-25 18:30:00,
2013-07-25 12:32:00,83.5,53.0,29.94,North,349,5.0,6.0,35,0.00,,,0.00,VWS V14.01,2013-07-25 18:32:00,
2013-07-25 12:35:00,80.3,53.1,29.96,North,9,2.0,7.0,39,0.00,,,0.00,VWS V14.01,2013-07-25 18:35:00,
2013-07-25 12:37:00,84.2,52.0,29.94,East,90,2.0,5.0,33,0.00,,,0.00,VWS V14.01,2013-07-25 18:37:00,
2013-07-25 12:40:00,80.6,53.4,29.96,NE,34,5.0,7.0,39,0.00,,,0.00,VWS V14.01,2013-07-25 18:40:00,
2013-07-25 12:42:00,84.3,52.9,29.94,NNE,12,4.0,6.0,34,0.00,,,0.00,VWS V14.01,2013-07-25 18:42:00,
2013-07-25 12:45:00,80.9,53.7,29.96,ENE,70,3.0,7.0,39,0.00,,,0.00,VWS V14.01,2013-07-25 18:45:00,
2013-07-25 12:47:00,84.3,53.7,29.94,NNE,30,7.0,7.0,35,0.00,,,0.00,VWS V14.01,2013-07-25 18:47:00,
2013-07-25 12:50:00,80.9,53.7,29.95,NNE,29,5.0,8.0,39,0.00,,,0.00,VWS V14.01,2013-07-25 18:50:00,
2013-07-25 12:52:00,84.5,53.1,29.94,NE,37,6.0,9.0,34,0.00,,,0.00,VWS V14.01,2013-07-25 18:52:00,
2013-07-25 12:55:00,81.2,53.9,29.95,NE,44,2.0,8.0,39,0.00,,,0.00,VWS V14.01,2013-07-25 18:55:00,
2013-07-25 12:57:00,84.6,53.2,29.94,NNE,23,6.0,8.0,34,0.00,,,0.00,VWS V14.01,2013-07-25 18:57:00,
2013-07-25 13:00:00,81.5,53.5,29.95,NNW,335,5.0,7.0,38,0.00,,,0.00,VWS V14.01,2013-07-25 19:00:00,
2013-07-25 13:02:00,84.8,52.5,29.94,NNE,29,6.0,8.0,33,0.00,,,0.00,VWS V14.01,2013-07-25 19:02:00,
2013-07-25 13:05:00,81.6,53.6,29.95,NNE,13,5.0,9.0,38,0.00,,,0.00,VWS V14.01,2013-07-25 19:05:00,
2013-07-25 13:07:00,85.0,51.9,29.94,NNW,342,9.0,9.0,32,0.00,,,0.00,VWS V14.01,2013-07-25 19:07:00,
2013-07-25 13:10:00,82.1,52.5,29.95,East,99,4.0,6.0,36,0.00,,,0.00,VWS V14.01,2013-07-25 19:10:00,
2013-07-25 13:12:00,85.3,52.1,29.94,NE,41,4.0,7.0,32,0.00,,,0.00,VWS V14.01,2013-07-25 19:12:00,
2013-07-25 13:15:00,82.9,54.0,29.95,NE,46,2.0,6.0,37,0.00,,,0.00,VWS V14.01,2013-07-25 19:15:00,
2013-07-25 13:17:00,85.7,51.6,29.93,NW,319,4.0,10.0,31,0.00,,,0.00,VWS V14.01,2013-07-25 19:17:00,
2013-07-25 13:20:00,83.2,52.7,29.95,SE,124,3.0,7.0,35,0.00,,,0.00,VWS V14.01,2013-07-25 19:20:00,
2013-07-25 13:22:00,85.6,51.5,29.93,North,349,4.0,9.0,31,0.00,,,0.00,VWS V14.01,2013-07-25 19:22:00,
2013-07-25 13:25:00,83.4,54.4,29.95,ENE,58,4.0,6.0,37,0.00,,,0.00,VWS V14.01,2013-07-25 19:25:00,
2013-07-25 13:27:00,85.8,51.7,29.93,North,356,7.0,9.0,31,0.00,,,0.00,VWS V14.01,2013-07-25 19:27:00,
2013-07-25 13:30:00,83.4,52.1,29.95,NNE,32,4.0,8.0,34,0.00,,,0.00,VWS V14.01,2013-07-25 19:30:00,
2013-07-25 13:32:00,86.2,52.0,29.93,NW,322,8.0,11.0,31,0.00,,,0.00,VWS V14.01,2013-07-25 19:32:00,
2013-07-25 13:35:00,84.2,53.6,29.94,NE,55,4.0,6.0,35,0.00,,,0.00,VWS V14.01,2013-07-25 19:35:00,
2013-07-25 13:37:00,86.4,52.2,29.93,NNW,347,3.0,8.0,31,0.00,,,0.00,VWS V14.01,2013-07-25 19:37:00,
2013-07-25 13:40:00,84.2,52.8,29.94,East,90,2.0,5.0,34,0.00,,,0.00,VWS V14.01,2013-07-25 19:40:00,
2013-07-25 13:42:00,86.6,51.5,29.93,NE,44,4.0,8.0,30,0.00,,,0.00,VWS V14.01,2013-07-25 19:42:00,
2013-07-25 13:45:00,84.3,52.9,29.94,East,82,4.0,6.0,34,0.00,,,0.00,VWS V14.01,2013-07-25 19:45:00,
2013-07-25 13:47:00,86.6,52.4,29.93,NE,36,9.0,9.0,31,0.00,,,0.00,VWS V14.01,2013-07-25 19:47:00,
2013-07-25 13:50:00,84.4,53.0,29.94,NNE,26,5.0,8.0,34,0.00,,,0.00,VWS V14.01,2013-07-25 19:50:00,
2013-07-25 13:52:00,87.0,51.8,29.93,East,83,1.0,4.0,30,0.00,,,0.00,VWS V14.01,2013-07-25 19:52:00,
2013-07-25 13:55:00,84.6,52.4,29.94,NNE,30,6.0,9.0,33,0.00,,,0.00,VWS V14.01,2013-07-25 19:55:00,
2013-07-25 13:57:00,87.2,51.1,29.93,ENE,58,6.0,10.0,29,0.00,,,0.00,VWS V14.01,2013-07-25 19:57:00,
2013-07-25 14:00:00,84.7,51.6,29.94,NNE,13,4.0,9.0,32,0.00,,,0.00,VWS V14.01,2013-07-25 20:00:00,
2013-07-25 14:02:00,86.6,50.6,29.92,NNE,13,3.0,8.0,29,0.00,,,0.00,VWS V14.01,2013-07-25 20:02:00,
2013-07-25 14:05:00,84.9,52.6,29.94,North,349,6.0,10.0,33,0.00,,,0.00,VWS V14.01,2013-07-25 20:05:00,
2013-07-25 14:07:00,86.5,50.5,29.92,NE,47,6.0,7.0,29,0.00,,,0.00,VWS V14.01,2013-07-25 20:07:00,
2013-07-25 14:10:00,85.3,52.1,29.93,NNE,21,6.0,9.0,32,0.00,,,0.00,VWS V14.01,2013-07-25 20:10:00,
2013-07-25 14:12:00,86.7,50.7,29.92,ENE,77,3.0,6.0,29,0.00,,,0.00,VWS V14.01,2013-07-25 20:12:00,
2013-07-25 14:15:00,85.6,53.2,29.93,NNW,331,7.0,9.0,33,0.00,,,0.00,VWS V14.01,2013-07-25 20:15:00,
2013-07-25 14:17:00,87.7,50.6,29.92,SSE,153,1.0,6.0,28,0.00,,,0.00,VWS V14.01,2013-07-25 20:17:00,
2013-07-25 14:20:00,85.8,52.6,29.94,NNE,16,8.0,12.0,32,0.00,,,0.00,VWS V14.01,2013-07-25 20:20:00,
2013-07-25 14:22:00,87.9,50.8,29.92,NNE,19,3.0,14.0,28,0.00,,,0.00,VWS V14.01,2013-07-25 20:22:00,
2013-07-25 14:25:00,85.7,51.6,29.93,NNE,18,5.0,9.0,31,0.00,,,0.00,VWS V14.01,2013-07-25 20:25:00,
2013-07-25 14:27:00,87.4,49.3,29.92,WNW,299,3.0,7.0,27,0.00,,,0.00,VWS V14.01,2013-07-25 20:27:00,
2013-07-25 14:30:00,86.0,51.9,29.93,NE,36,5.0,9.0,31,0.00,,,0.00,VWS V14.01,2013-07-25 20:30:00,
2013-07-25 14:32:00,87.5,49.4,29.92,East,79,1.0,7.0,27,0.00,,,0.00,VWS V14.01,2013-07-25 20:32:00,
2013-07-25 14:35:00,86.4,52.2,29.93,NW,321,8.0,11.0,31,0.00,,,0.00,VWS V14.01,2013-07-25 20:35:00,
2013-07-25 14:37:00,88.5,50.3,29.92,East,79,5.0,6.0,27,0.00,,,0.00,VWS V14.01,2013-07-25 20:37:00,
2013-07-25 14:40:00,86.7,51.6,29.93,NE,37,1.0,8.0,30,0.00,,,0.00,VWS V14.01,2013-07-25 20:40:00,
2013-07-25 14:42:00,88.3,49.1,29.92,ESE,107,3.0,4.0,26,0.00,,,0.00,VWS V14.01,2013-07-25 20:42:00,
2013-07-25 14:45:00,86.5,52.3,29.93,NE,49,4.0,8.0,31,0.00,,,0.00,VWS V14.01,2013-07-25 20:45:00,
2013-07-25 14:47:00,88.1,48.9,29.92,NNE,26,2.0,4.0,26,0.00,,,0.00,VWS V14.01,2013-07-25 20:47:00,
2013-07-25 14:50:00,86.9,50.8,29.92,North,349,4.0,10.0,29,0.00,,,0.00,VWS V14.01,2013-07-25 20:50:00,
2013-07-25 14:52:00,88.3,49.1,29.92,NNE,23,3.0,7.0,26,0.00,,,0.00,VWS V14.01,2013-07-25 20:52:00,
2013-07-25 14:55:00,87.3,52.1,29.92,ENE,63,8.0,8.0,30,0.00,,,0.00,VWS V14.01,2013-07-25 20:55:00,
2013-07-25 14:57:00,87.8,49.7,29.92,NW,304,4.0,8.0,27,0.00,,,0.00,VWS V14.01,2013-07-25 20:57:00,
2013-07-25 15:00:00,86.8,49.8,29.93,NE,40,6.0,10.0,28,0.00,,,0.00,VWS V14.01,2013-07-25 21:00:00,
2013-07-25 15:02:00,88.0,48.8,29.92,NNE,12,6.0,9.0,26,0.00,,,0.00,VWS V14.01,2013-07-25 21:02:00,
2013-07-25 15:05:00,86.6,50.6,29.92,NNE,26,5.0,12.0,29,0.00,,,0.00,VWS V14.01,2013-07-25 21:05:00,
2013-07-25 15:07:00,88.4,50.2,29.91,ENE,58,1.0,3.0,27,0.00,,,0.00,VWS V14.01,2013-07-25 21:07:00,
2013-07-25 15:10:00,86.6,50.6,29.92,SSE,159,2.0,8.0,29,0.00,,,0.00,VWS V14.01,2013-07-25 21:10:00,
2013-07-25 15:12:00,89.3,50.0,29.91,East,87,4.0,6.0,26,0.00,,,0.00,VWS V14.01,2013-07-25 21:12:00,
2013-07-25 15:15:00,87.3,51.2,29.92,NNE,32,4.0,7.0,29,0.00,,,0.00,VWS V14.01,2013-07-25 21:15:00,
2013-07-25 15:17:00,89.1,49.8,29.91,ENE,59,4.0,9.0,26,0.00,,,0.00,VWS V14.01,2013-07-25 21:17:00,
2013-07-25 15:20:00,87.6,51.5,29.92,NE,39,7.0,7.0,29,0.00,,,0.00,VWS V14.01,2013-07-25 21:20:00,
2013-07-25 15:23:00,89.6,51.2,29.91,East,84,0.0,6.0,27,0.00,,,0.00,VWS V14.01,2013-07-25 21:23:00,
2013-07-25 15:25:00,87.5,49.4,29.92,NW,311,6.0,14.0,27,0.00,,,0.00,VWS V14.01,2013-07-25 21:25:00,
2013-07-25 15:28:00,90.2,48.6,29.91,ENE,72,2.0,4.0,24,0.00,,,0.00,VWS V14.01,2013-07-25 21:28:00,
2013-07-25 15:30:00,87.6,50.5,29.92,ENE,59,7.0,8.0,28,0.00,,,0.00,VWS V14.01,2013-07-25 21:30:00,
2013-07-25 15:33:00,89.5,50.1,29.91,NNE,25,7.0,7.0,26,0.00,,,0.00,VWS V14.01,2013-07-25 21:33:00,
2013-07-25 15:35:00,87.9,50.8,29.92,NNE,12,0.0,7.0,28,0.00,,,0.00,VWS V14.01,2013-07-25 21:35:00,
2013-07-25 15:40:00,88.5,48.2,29.92,East,90,3.0,6.0,25,0.00,,,0.00,VWS V14.01,2013-07-25 21:40:00,
2013-07-25 15:45:00,87.9,48.8,29.92,East,90,1.0,4.0,26,0.00,,,0.00,VWS V14.01,2013-07-25 21:45:00,
2013-07-25 15:50:00,88.5,49.3,29.92,NNE,20,5.0,7.0,26,0.00,,,0.00,VWS V14.01,2013-07-25 21:50:00,
2013-07-25 15:55:00,87.9,49.8,29.92,NNE,26,4.0,7.0,27,0.00,,,0.00,VWS V14.01,2013-07-25 21:55:00,
2013-07-25 16:00:00,87.8,49.7,29.92,ENE,73,1.0,10.0,27,0.00,,,0.00,VWS V14.01,2013-07-25 22:00:00,
2013-07-25 16:05:00,88.1,47.9,29.92,NNW,338,3.0,9.0,25,0.00,,,0.00,VWS V14.01,2013-07-25 22:05:00,
2013-07-25 16:10:00,89.1,49.8,29.91,North,9,6.0,6.0,26,0.00,,,0.00,VWS V14.01,2013-07-25 22:10:00,
2013-07-25 16:15:00,89.3,51.0,29.91,ENE,76,9.0,10.0,27,0.00,,,0.00,VWS V14.01,2013-07-25 22:15:00,
2013-07-25 16:20:00,89.3,48.9,29.91,NNE,23,4.0,9.0,25,0.00,,,0.00,VWS V14.01,2013-07-25 22:20:00,
2013-07-25 16:25:00,90.1,49.6,29.91,NW,319,2.0,6.0,25,0.00,,,0.00,VWS V14.01,2013-07-25 22:25:00,
2013-07-25 16:30:00,89.7,49.2,29.91,NE,51,2.0,9.0,25,0.00,,,0.00,VWS V14.01,2013-07-25 22:30:00,
2013-07-25 16:35:00,89.5,50.1,29.91,NNE,32,7.0,9.0,26,0.00,,,0.00,VWS V14.01,2013-07-25 22:35:00,
2013-07-25 17:22:00,89.9,48.3,29.88,NE,47,6.0,6.0,24,0.00,,,0.00,VWS V14.01,2013-07-25 23:22:00,
2013-07-25 17:27:00,89.8,48.2,29.88,ENE,68,3.0,8.0,24,0.00,,,0.00,VWS V14.01,2013-07-25 23:27:00,
2013-07-25 17:32:00,89.9,48.3,29.88,East,101,2.0,8.0,24,0.00,,,0.00,VWS V14.01,2013-07-25 23:32:00,
2013-07-25 17:37:00,89.9,47.2,29.88,ENE,65,8.0,8.0,23,0.00,,,0.00,VWS V14.01,2013-07-25 23:37:00,
2013-07-25 17:42:00,90.2,48.6,29.88,North,6,5.0,6.0,24,0.00,,,0.00,VWS V14.01,2013-07-25 23:42:00,
2013-07-25 17:48:00,90.2,48.6,29.88,East,94,6.0,7.0,24,0.00,,,0.00,VWS V14.01,2013-07-25 23:48:00,
2013-07-25 17:53:00,89.9,48.3,29.88,ENE,75,3.0,5.0,24,0.00,,,0.00,VWS V14.01,2013-07-25 23:53:00,
2013-07-25 17:58:00,90.2,47.4,29.88,ESE,110,2.0,6.0,23,0.00,,,0.00,VWS V14.01,2013-07-25 23:58:00,
2013-07-25 18:03:00,90.1,48.5,29.88,East,101,4.0,5.0,24,0.00,,,0.00,VWS V14.01,2013-07-26 00:03:00,
2013-07-25 18:08:00,90.1,47.3,29.88,ENE,72,1.0,5.0,23,0.00,,,0.00,VWS V14.01,2013-07-26 00:08:00,
2013-07-25 18:13:00,90.3,47.5,29.87,NE,51,3.0,5.0,23,0.00,,,0.00,VWS V14.01,2013-07-26 00:13:00,
2013-07-25 18:18:00,90.2,49.7,29.87,East,87,2.0,4.0,25,0.00,,,0.00,VWS V14.01,2013-07-26 00:18:00,
2013-07-25 18:23:00,90.6,48.9,29.87,East,89,4.0,5.0,24,0.00,,,0.00,VWS V14.01,2013-07-26 00:23:00,
2013-07-25 18:25:00,89.8,49.3,29.88,East,79,3.0,7.0,25,0.00,,,0.00,VWS V14.01,2013-07-26 00:25:00,
2013-07-25 18:28:00,90.5,49.9,29.87,ENE,68,1.0,3.0,25,0.00,,,0.00,VWS V14.01,2013-07-26 00:28:00,
2013-07-25 18:30:00,89.8,48.2,29.88,NE,52,6.0,8.0,24,0.00,,,0.00,VWS V14.01,2013-07-26 00:30:00,
2013-07-25 18:33:00,90.5,51.0,29.87,East,94,1.0,2.0,26,0.00,,,0.00,VWS V14.01,2013-07-26 00:33:00,
2013-07-25 18:35:00,89.8,48.2,29.88,NE,43,4.0,8.0,24,0.00,,,0.00,VWS V14.01,2013-07-26 00:35:00,
2013-07-25 18:38:00,90.4,49.8,29.87,NE,36,3.0,3.0,25,0.00,,,0.00,VWS V14.01,2013-07-26 00:38:00,
2013-07-25 18:40:00,90.1,48.5,29.88,NNE,26,3.0,8.0,24,0.00,,,0.00,VWS V14.01,2013-07-26 00:40:00,
2013-07-25 18:43:00,90.4,47.6,29.86,East,95,1.0,3.0,23,0.00,,,0.00,VWS V14.01,2013-07-26 00:43:00,
2013-07-25 18:45:00,90.2,48.6,29.88,East,101,3.0,6.0,24,0.00,,,0.00,VWS V14.01,2013-07-26 00:45:00,
2013-07-25 18:48:00,90.3,48.7,29.86,East,98,2.0,5.0,24,0.00,,,0.00,VWS V14.01,2013-07-26 00:48:00,
2013-07-25 18:50:00,90.0,48.4,29.88,East,98,5.0,7.0,24,0.00,,,0.00,VWS V14.01,2013-07-26 00:50:00,
2013-07-25 18:53:00,90.6,51.0,29.86,SSE,155,2.0,2.0,26,0.00,,,0.00,VWS V14.01,2013-07-26 00:53:00,
2013-07-25 18:55:00,89.9,49.4,29.88,East,79,2.0,6.0,25,0.00,,,0.00,VWS V14.01,2013-07-26 00:55:00,
2013-07-25 18:58:00,90.2,50.7,29.86,SSE,152,2.0,3.0,26,0.00,,,0.00,VWS V14.01,2013-07-26 00:58:00,
2013-07-25 19:00:00,90.2,48.6,29.88,East,90,3.0,6.0,24,0.00,,,0.00,VWS V14.01,2013-07-26 01:00:00,
2013-07-25 19:03:00,90.2,49.7,29.86,ESE,115,1.0,2.0,25,0.00,,,0.00,VWS V14.01,2013-07-26 01:03:00,
2013-07-25 19:05:00,90.0,47.3,29.88,East,86,5.0,6.0,23,0.00,,,0.00,VWS V14.01,2013-07-26 01:05:00,
2013-07-25 19:08:00,90.2,49.7,29.86,East,97,1.0,3.0,25,0.00,,,0.00,VWS V14.01,2013-07-26 01:08:00,
2013-07-25 19:10:00,90.2,48.6,29.87,East,89,3.0,5.0,24,0.00,,,0.00,VWS V14.01,2013-07-26 01:10:00,
2013-07-25 19:13:00,90.2,48.6,29.86,SE,135,0.0,1.0,24,0.00,,,0.00,VWS V14.01,2013-07-26 01:13:00,
2013-07-25 19:15:00,90.0,48.4,29.87,NE,40,2.0,6.0,24,0.00,,,0.00,VWS V14.01,2013-07-26 01:15:00,
2013-07-25 19:18:00,91.3,51.7,29.86,SE,145,0.0,0.0,26,0.00,,,0.00,VWS V14.01,2013-07-26 01:18:00,
2013-07-25 19:20:00,90.5,47.7,29.87,ENE,72,2.0,4.0,23,0.00,,,0.00,VWS V14.01,2013-07-26 01:20:00,
2013-07-25 19:23:00,91.6,50.8,29.86,SE,141,1.0,1.0,25,0.00,,,0.00,VWS V14.01,2013-07-26 01:23:00,
2013-07-25 19:25:00,90.6,48.9,29.87,East,96,2.0,5.0,24,0.00,,,0.00,VWS V14.01,2013-07-26 01:25:00,
2013-07-25 19:28:00,91.3,49.5,29.86,SE,141,1.0,2.0,24,0.00,,,0.00,VWS V14.01,2013-07-26 01:28:00,
2013-07-25 19:30:00,90.5,49.9,29.87,SE,131,1.0,4.0,25,0.00,,,0.00,VWS V14.01,2013-07-26 01:30:00,
2013-07-25 19:33:00,90.6,50.0,29.86,SE,137,1.0,2.0,25,0.00,,,0.00,VWS V14.01,2013-07-26 01:33:00,
2013-07-25 19:35:00,90.6,48.9,29.87,ENE,57,3.0,4.0,24,0.00,,,0.00,VWS V14.01,2013-07-26 01:35:00,
2013-07-25 19:38:00,90.2,50.7,29.86,SSE,148,1.0,2.0,26,0.00,,,0.00,VWS V14.01,2013-07-26 01:38:00,
2013-07-25 19:40:00,90.4,48.7,29.87,NNE,28,0.0,4.0,24,0.00,,,0.00,VWS V14.01,2013-07-26 01:40:00,
2013-07-25 19:43:00,89.8,52.4,29.86,ESE,120,0.0,2.0,28,0.00,,,0.00,VWS V14.01,2013-07-26 01:43:00,
2013-07-25 19:45:00,90.3,49.7,29.86,ENE,68,3.0,5.0,25,0.00,,,0.00,VWS V14.01,2013-07-26 01:45:00,
2013-07-25 19:48:00,89.3,52.9,29.86,SE,128,0.0,1.0,29,0.00,,,0.00,VWS V14.01,2013-07-26 01:48:00,
2013-07-25 19:50:00,90.5,52.0,29.86,SE,125,1.0,5.0,27,0.00,,,0.00,VWS V14.01,2013-07-26 01:50:00,
2013-07-25 19:53:00,89.7,50.3,29.86,SE,128,0.0,0.0,26,0.00,,,0.00,VWS V14.01,2013-07-26 01:53:00,
2013-07-25 19:55:00,90.4,49.8,29.86,ESE,120,3.0,3.0,25,0.00,,,0.00,VWS V14.01,2013-07-26 01:55:00,
2013-07-25 19:58:00,90.5,52.0,29.86,WSW,250,1.0,1.0,27,0.00,,,0.00,VWS V14.01,2013-07-26 01:58:00,
2013-07-25 20:00:00,90.1,49.6,29.86,South,182,2.0,3.0,25,0.00,,,0.00,VWS V14.01,2013-07-26 02:00:00,
2013-07-25 20:03:00,89.7,55.1,29.86,WNW,295,1.0,2.0,31,0.00,,,0.00,VWS V14.01,2013-07-26 02:03:00,
2013-07-25 20:05:00,90.3,50.8,29.86,East,101,2.0,2.0,26,0.00,,,0.00,VWS V14.01,2013-07-26 02:05:00,
2013-07-25 20:08:00,88.7,55.1,29.86,WNW,295,0.0,1.0,32,0.00,,,0.00,VWS V14.01,2013-07-26 02:08:00,
2013-07-25 20:10:00,90.2,48.6,29.86,SE,132,1.0,3.0,24,0.00,,,0.00,VWS V14.01,2013-07-26 02:10:00,
2013-07-25 20:13:00,89.2,56.4,29.86,WNW,295,0.0,0.0,33,0.00,,,0.00,VWS V14.01,2013-07-26 02:13:00,
2013-07-25 20:15:00,90.5,48.8,29.86,SE,142,0.0,1.0,24,0.00,,,0.00,VWS V14.01,2013-07-26 02:15:00,
2013-07-25 20:18:00,88.5,55.8,29.86,SE,125,1.0,1.0,33,0.00,,,0.00,VWS V14.01,2013-07-26 02:18:00,
2013-07-25 20:20:00,91.8,51.0,29.86,SSE,153,1.0,1.0,25,0.00,,,0.00,VWS V14.01,2013-07-26 02:20:00,
2013-07-25 20:23:00,87.2,57.8,29.86,SE,125,0.0,1.0,37,0.00,,,0.00,VWS V14.01,2013-07-26 02:23:00,
2013-07-25 20:25:00,91.3,49.5,29.86,SSE,150,2.0,2.0,24,0.00,,,0.00,VWS V14.01,2013-07-26 02:25:00,
2013-07-25 20:28:00,86.6,57.2,29.86,SE,125,0.0,0.0,37,0.00,,,0.00,VWS V14.01,2013-07-26 02:28:00,
2013-07-25 20:30:00,91.0,49.2,29.86,SE,146,2.0,3.0,24,0.00,,,0.00,VWS V14.01,2013-07-26 02:30:00,
2013-07-25 20:33:00,86.0,59.6,29.86,North,352,0.0,0.0,41,0.00,,,0.00,VWS V14.01,2013-07-26 02:33:00,
2013-07-25 20:35:00,90.4,49.8,29.86,SSE,148,2.0,2.0,25,0.00,,,0.00,VWS V14.01,2013-07-26 02:35:00,
2013-07-25 20:38:00,83.8,59.6,29.86,NNW,344,0.0,0.0,44,0.00,,,0.00,VWS V14.01,2013-07-26 02:38:00,
2013-07-25 20:40:00,90.1,52.6,29.86,ESE,119,2.0,2.0,28,0.00,,,0.00,VWS V14.01,2013-07-26 02:40:00,
2013-07-25 20:43:00,82.2,57.5,29.86,NNW,329,0.0,0.0,43,0.00,,,0.00,VWS V14.01,2013-07-26 02:43:00,
2013-07-25 20:45:00,89.6,52.2,29.86,SE,130,1.0,2.0,28,0.00,,,0.00,VWS V14.01,2013-07-26 02:45:00,
2013-07-25 20:48:00,81.6,56.3,29.86,NNW,329,0.0,0.0,42,0.00,,,0.00,VWS V14.01,2013-07-26 02:48:00,
2013-07-25 20:50:00,89.4,52.0,29.86,SE,128,0.0,1.0,28,0.00,,,0.00,VWS V14.01,2013-07-26 02:50:00,
2013-07-25 20:53:00,81.4,56.8,29.86,NNW,329,0.0,0.0,43,0.00,,,0.00,VWS V14.01,2013-07-26 02:53:00,
2013-07-25 20:55:00,90.0,51.6,29.86,SSE,153,0.0,0.0,27,0.00,,,0.00,VWS V14.01,2013-07-26 02:55:00,
2013-07-25 20:59:00,81.3,58.6,29.86,NNW,329,0.0,0.0,46,0.00,,,0.00,VWS V14.01,2013-07-26 02:59:00,
2013-07-25 21:00:00,90.5,54.9,29.86,WNW,295,1.0,2.0,30,0.00,,,0.00,VWS V14.01,2013-07-26 03:00:00,
2013-07-25 21:04:00,80.8,58.1,29.86,NNW,329,0.0,0.0,46,0.00,,,0.00,VWS V14.01,2013-07-26 03:04:00,
2013-07-25 21:05:00,89.2,54.6,29.86,WNW,295,1.0,2.0,31,0.00,,,0.00,VWS V14.01,2013-07-26 03:05:00,
2013-07-25 21:09:00,79.3,57.9,29.86,WNW,300,0.0,0.0,48,0.00,,,0.00,VWS V14.01,2013-07-26 03:09:00,
2013-07-25 21:10:00,88.8,56.8,29.86,WNW,295,0.0,1.0,34,0.00,,,0.00,VWS V14.01,2013-07-26 03:10:00,
2013-07-25 21:14:00,77.9,56.1,29.86,West,259,2.0,2.0,47,0.00,,,0.00,VWS V14.01,2013-07-26 03:14:00,
2013-07-25 21:15:00,89.0,54.5,29.86,SSE,153,1.0,1.0,31,0.00,,,0.00,VWS V14.01,2013-07-26 03:15:00,
2013-07-25 21:19:00,76.5,54.2,29.86,West,259,3.0,4.0,46,0.00,,,0.00,VWS V14.01,2013-07-26 03:19:00,
2013-07-25 21:20:00,88.0,56.9,29.86,SE,125,1.0,1.0,35,0.00,,,0.00,VWS V14.01,2013-07-26 03:20:00,
2013-07-25 21:24:00,75.1,52.3,29.86,WSW,250,1.0,3.0,45,0.00,,,0.00,VWS V14.01,2013-07-26 03:24:00,
2013-07-25 21:25:00,86.9,57.5,29.86,SE,126,0.0,1.0,37,0.00,,,0.00,VWS V14.01,2013-07-26 03:25:00,
2013-07-25 21:29:00,74.7,52.0,29.86,WSW,252,2.0,3.0,45,0.00,,,0.00,VWS V14.01,2013-07-26 03:29:00,
2013-07-25 21:30:00,86.4,57.1,29.86,SE,125,0.0,0.0,37,0.00,,,0.00,VWS V14.01,2013-07-26 03:30:00,
2013-07-25 21:34:00,74.4,51.7,29.86,West,263,2.0,3.0,45,0.00,,,0.00,VWS V14.01,2013-07-26 03:34:00,
2013-07-25 21:35:00,85.3,59.6,29.86,NNW,347,0.0,0.0,42,0.00,,,0.00,VWS V14.01,2013-07-26 03:35:00,
2013-07-25 21:39:00,73.7,51.7,29.86,WSW,255,2.0,3.0,46,0.00,,,0.00,VWS V14.01,2013-07-26 03:39:00,
2013-07-25 21:40:00,83.2,57.1,29.86,NNW,333,0.0,0.0,41,0.00,,,0.00,VWS V14.01,2013-07-26 03:40:00,
2013-07-25 21:44:00,72.9,51.5,29.86,WSW,243,1.0,3.0,47,0.00,,,0.00,VWS V14.01,2013-07-26 03:44:00,
2013-07-25 21:45:00,81.9,57.2,29.86,NNW,329,0.0,0.0,43,0.00,,,0.00,VWS V14.01,2013-07-26 03:45:00,
2013-07-25 21:49:00,72.4,51.0,29.86,West,263,2.0,3.0,47,0.00,,,0.00,VWS V14.01,2013-07-26 03:49:00,
2013-07-25 21:50:00,81.5,56.2,29.86,NNW,329,0.0,0.0,42,0.00,,,0.00,VWS V14.01,2013-07-26 03:50:00,
2013-07-25 21:54:00,72.0,51.3,29.86,WSW,250,2.0,3.0,48,0.00,,,0.00,VWS V14.01,2013-07-26 03:54:00,
2013-07-25 21:55:00,81.4,56.8,29.86,NNW,329,0.0,0.0,43,0.00,,,0.00,VWS V14.01,2013-07-26 03:55:00,
2013-07-25 21:59:00,71.8,50.5,29.86,West,266,2.0,3.0,47,0.00,,,0.00,VWS V14.01,2013-07-26 03:59:00,
2013-07-25 22:00:00,81.2,58.5,29.86,NNW,329,0.0,0.0,46,0.00,,,0.00,VWS V14.01,2013-07-26 04:00:00,
2013-07-25 22:01:00,71.7,51.0,29.87,West,273,2.0,3.0,48,0.00,,,0.00,VWS V14.01,2013-07-26 04:01:00,
2013-07-25 22:02:00,71.5,50.8,29.86,West,266,2.0,3.0,48,0.00,,,0.00,VWS V14.01,2013-07-26 04:02:00,
2013-07-25 22:03:00,71.4,51.3,29.87,West,273,2.0,3.0,49,0.00,,,0.00,VWS V14.01,2013-07-26 04:03:00,
2013-07-25 22:05:00,80.5,59.0,29.86,NNW,329,0.0,0.0,48,0.00,,,0.00,VWS V14.01,2013-07-26 04:05:00,
2013-07-25 22:08:00,71.1,51.0,29.87,North,9,3.0,3.0,49,0.00,,,0.00,VWS V14.01,2013-07-26 04:08:00,
2013-07-25 22:10:00,78.9,57.0,29.86,WNW,297,0.0,0.0,47,0.00,,,0.00,VWS V14.01,2013-07-26 04:10:00,
2013-07-25 22:13:00,69.5,51.1,29.87,NNE,19,2.0,2.0,52,0.00,,,0.00,VWS V14.01,2013-07-26 04:13:00,
2013-07-25 22:15:00,77.5,55.1,29.86,West,259,3.0,3.0,46,0.00,,,0.00,VWS V14.01,2013-07-26 04:15:00,
2013-07-25 22:18:00,68.3,53.4,29.87,NE,43,2.0,2.0,59,0.00,,,0.00,VWS V14.01,2013-07-26 04:18:00,
2013-07-25 22:20:00,76.0,53.8,29.86,West,260,3.0,4.0,46,0.00,,,0.00,VWS V14.01,2013-07-26 04:20:00,
2013-07-25 22:23:00,67.8,53.9,29.88,NE,37,0.0,1.0,61,0.00,,,0.00,VWS V14.01,2013-07-26 04:23:00,
2013-07-25 22:25:00,75.0,52.2,29.86,West,260,2.0,3.0,45,0.00,,,0.00,VWS V14.01,2013-07-26 04:25:00,
2013-07-25 22:28:00,67.1,54.5,29.88,NE,39,1.0,1.0,64,0.00,,,0.00,VWS V14.01,2013-07-26 04:28:00,
2013-07-25 22:30:00,74.6,51.9,29.86,WSW,249,1.0,3.0,45,0.00,,,0.00,VWS V14.01,2013-07-26 04:30:00,
2013-07-25 22:33:00,67.3,54.7,29.88,NE,56,0.0,1.0,64,0.00,,,0.00,VWS V14.01,2013-07-26 04:33:00,
2013-07-25 22:35:00,74.3,52.2,29.86,West,260,2.0,3.0,46,0.00,,,0.00,VWS V14.01,2013-07-26 04:35:00,
2013-07-25 22:38:00,67.9,55.3,29.87,NE,56,0.0,0.0,64,0.00,,,0.00,VWS V14.01,2013-07-26 04:38:00,
2013-07-25 22:40:00,73.5,51.5,29.86,West,269,3.0,3.0,46,0.00,,,0.00,VWS V14.01,2013-07-26 04:40:00,
2013-07-25 22:43:00,67.8,54.8,29.88,NE,56,0.0,0.0,63,0.00,,,0.00,VWS V14.01,2013-07-26 04:43:00,
2013-07-25 22:45:00,72.8,51.4,29.86,WSW,256,1.0,3.0,47,0.00,,,0.00,VWS V14.01,2013-07-26 04:45:00,
2013-07-25 22:48:00,67.3,55.6,29.88,NW,326,1.0,1.0,66,0.00,,,0.00,VWS V14.01,2013-07-26 04:48:00,
2013-07-25 22:50:00,72.2,50.9,29.86,WSW,250,2.0,3.0,47,0.00,,,0.00,VWS V14.01,2013-07-26 04:50:00,
2013-07-25 22:53:00,66.5,55.2,29.88,NNW,329,0.0,0.0,67,0.00,,,0.00,VWS V14.01,2013-07-26 04:53:00,
2013-07-25 22:55:00,71.9,50.6,29.86,West,267,1.0,3.0,47,0.00,,,0.00,VWS V14.01,2013-07-26 04:55:00,
2013-07-25 22:58:00,66.1,54.8,29.88,NNW,328,0.0,0.0,67,0.00,,,0.00,VWS V14.01,2013-07-26 04:58:00,
2013-07-25 23:00:00,71.7,51.0,29.86,West,281,3.0,3.0,48,0.00,,,0.00,VWS V14.01,2013-07-26 05:00:00,
2013-07-25 23:03:00,65.4,55.4,29.88,NNW,329,0.0,0.0,70,0.00,,,0.00,VWS V14.01,2013-07-26 05:03:00,
2013-07-25 23:05:00,71.3,50.6,29.87,WNW,288,1.0,3.0,48,0.00,,,0.00,VWS V14.01,2013-07-26 05:05:00,
2013-07-25 23:08:00,65.4,55.4,29.88,NNW,328,0.0,0.0,70,0.00,,,0.00,VWS V14.01,2013-07-26 05:08:00,
2013-07-25 23:10:00,70.3,50.8,29.87,NNE,18,2.0,3.0,50,0.00,,,0.00,VWS V14.01,2013-07-26 05:10:00,
2013-07-25 23:13:00,65.7,55.7,29.88,NNW,332,0.0,0.0,70,0.00,,,0.00,VWS V14.01,2013-07-26 05:13:00,
2013-07-25 23:15:00,68.8,51.5,29.87,NNE,19,0.0,2.0,54,0.00,,,0.00,VWS V14.01,2013-07-26 05:15:00,
2013-07-25 23:18:00,65.5,56.6,29.88,NNW,335,2.0,2.0,73,0.00,,,0.00,VWS V14.01,2013-07-26 05:18:00,
2013-07-25 23:20:00,68.1,53.7,29.88,NE,41,1.0,2.0,60,0.00,,,0.00,VWS V14.01,2013-07-26 05:20:00,
2013-07-25 23:23:00,64.9,54.9,29.88,NE,34,1.0,3.0,70,0.00,,,0.00,VWS V14.01,2013-07-26 05:23:00,
2013-07-25 23:25:00,67.4,54.8,29.88,NE,37,1.0,1.0,64,0.00,,,0.00,VWS V14.01,2013-07-26 05:25:00,
2013-07-25 23:28:00,64.1,55.3,29.89,NE,40,0.0,2.0,73,0.00,,,0.00,VWS V14.01,2013-07-26 05:28:00,
2013-07-25 23:30:00,67.2,55.5,29.87,NE,53,1.0,2.0,66,0.00,,,0.00,VWS V14.01,2013-07-26 05:30:00,
2013-07-25 23:33:00,63.5,54.7,29.89,ENE,68,2.0,2.0,73,0.00,,,0.00,VWS V14.01,2013-07-26 05:33:00,
2013-07-25 23:35:00,67.6,54.6,29.88,NE,56,0.0,1.0,63,0.00,,,0.00,VWS V14.01,2013-07-26 05:35:00,
2013-07-25 23:38:00,63.0,53.8,29.89,NE,54,1.0,2.0,72,0.00,,,0.00,VWS V14.01,2013-07-26 05:38:00,
2013-07-25 23:40:00,68.0,55.4,29.87,ENE,57,0.0,0.0,64,0.00,,,0.00,VWS V14.01,2013-07-26 05:40:00,
2013-07-25 23:43:00,62.9,54.1,29.89,ENE,67,0.0,0.0,73,0.00,,,0.00,VWS V14.01,2013-07-26 05:43:00,
2013-07-25 23:45:00,67.6,54.6,29.88,NW,326,0.0,0.0,63,0.00,,,0.00,VWS V14.01,2013-07-26 05:45:00,
2013-07-25 23:48:00,63.3,54.1,29.89,East,82,0.0,0.0,72,0.00,,,0.00,VWS V14.01,2013-07-26 05:48:00,
2013-07-25 23:50:00,66.9,55.2,29.88,NNW,329,0.0,2.0,66,0.00,,,0.00,VWS V14.01,2013-07-26 05:50:00,
2013-07-25 23:53:00,64.0,54.8,29.89,East,81,0.0,0.0,72,0.00,,,0.00,VWS V14.01,2013-07-26 05:53:00,
2013-07-25 23:55:00,66.3,55.4,29.88,NNW,328,0.0,1.0,68,0.00,,,0.00,VWS V14.01,2013-07-26 05:55:00,
2013-07-25 23:58:00,64.4,54.4,29.89,East,81,0.0,0.0,70,0.00,,,0.00,VWS V14.01,2013-07-26 05:58:00,